sensor_id;sensor_type;location;lat;lon;timestamp;temperature;humidity
12622;DHT22;6376;48.182;-1.644;2022-09-03T00:01:44;20.80;81.60
12622;DHT22;6376;48.182;-1.644;2022-09-03T00:04:29;20.80;81.40
12622;DHT22;6376;48.182;-1.644;2022-09-03T00:07:03;20.80;81.40
12622;DHT22;6376;48.182;-1.644;2022-09-03T00:09:35;20.80;81.30
12622;DHT22;6376;48.182;-1.644;2022-09-03T00:12:18;20.80;81.50
12622;DHT22;6376;48.182;-1.644;2022-09-03T00:15:03;20.80;81.40
12622;DHT22;6376;48.182;-1.644;2022-09-03T00:17:39;20.80;81.50
12622;DHT22;6376;48.182;-1.644;2022-09-03T00:22:41;20.80;81.50
12622;DHT22;6376;48.182;-1.644;2022-09-03T00:25:11;20.80;81.40
12622;DHT22;6376;48.182;-1.644;2022-09-03T00:27:39;20.80;81.50
12622;DHT22;6376;48.182;-1.644;2022-09-03T00:30:11;20.80;81.60
12622;DHT22;6376;48.182;-1.644;2022-09-03T00:38:00;20.80;81.60
12622;DHT22;6376;48.182;-1.644;2022-09-03T00:43:17;20.80;81.50
12622;DHT22;6376;48.182;-1.644;2022-09-03T00:46:17;20.80;81.30
12622;DHT22;6376;48.182;-1.644;2022-09-03T00:51:36;20.80;81.40
12622;DHT22;6376;48.182;-1.644;2022-09-03T01:04:49;20.80;81.40
12622;DHT22;6376;48.182;-1.644;2022-09-03T01:10:39;20.80;81.30
12622;DHT22;6376;48.182;-1.644;2022-09-03T01:16:37;20.80;81.50
12622;DHT22;6376;48.182;-1.644;2022-09-03T01:24:53;20.80;81.50
12622;DHT22;6376;48.182;-1.644;2022-09-03T01:30:27;20.80;81.30
12622;DHT22;6376;48.182;-1.644;2022-09-03T01:38:30;20.80;81.30
12622;DHT22;6376;48.182;-1.644;2022-09-03T01:52:55;20.80;81.10
12622;DHT22;6376;48.182;-1.644;2022-09-03T01:55:50;20.80;81.30
12622;DHT22;6376;48.182;-1.644;2022-09-03T01:58:36;20.80;81.40
12622;DHT22;6376;48.182;-1.644;2022-09-03T02:01:16;20.80;81.50
12622;DHT22;6376;48.182;-1.644;2022-09-03T02:03:46;20.80;81.40
12622;DHT22;6376;48.182;-1.644;2022-09-03T02:06:12;20.70;81.30
12622;DHT22;6376;48.182;-1.644;2022-09-03T02:08:38;20.70;81.50
12622;DHT22;6376;48.182;-1.644;2022-09-03T02:11:07;20.70;81.50
12622;DHT22;6376;48.182;-1.644;2022-09-03T02:13:37;20.70;82.20
12622;DHT22;6376;48.182;-1.644;2022-09-03T02:16:13;20.70;81.40
12622;DHT22;6376;48.182;-1.644;2022-09-03T02:18:47;20.70;81.50
12622;DHT22;6376;48.182;-1.644;2022-09-03T02:21:17;20.70;81.50
12622;DHT22;6376;48.182;-1.644;2022-09-03T02:23:44;20.70;81.50
12622;DHT22;6376;48.182;-1.644;2022-09-03T02:26:11;20.70;81.50
12622;DHT22;6376;48.182;-1.644;2022-09-03T02:28:38;20.70;81.50
12622;DHT22;6376;48.182;-1.644;2022-09-03T02:31:03;20.70;81.60
12622;DHT22;6376;48.182;-1.644;2022-09-03T02:33:33;20.70;81.60
12622;DHT22;6376;48.182;-1.644;2022-09-03T02:36:00;20.70;81.70
12622;DHT22;6376;48.182;-1.644;2022-09-03T02:38:26;20.70;81.60
12622;DHT22;6376;48.182;-1.644;2022-09-03T02:40:53;20.70;81.80
12622;DHT22;6376;48.182;-1.644;2022-09-03T02:46:00;20.70;81.80
12622;DHT22;6376;48.182;-1.644;2022-09-03T02:48:26;20.70;81.80
12622;DHT22;6376;48.182;-1.644;2022-09-03T02:50:52;20.70;81.80
12622;DHT22;6376;48.182;-1.644;2022-09-03T02:53:17;20.70;81.80
12622;DHT22;6376;48.182;-1.644;2022-09-03T02:55:43;20.70;81.80
12622;DHT22;6376;48.182;-1.644;2022-09-03T02:58:09;20.70;81.90
12622;DHT22;6376;48.182;-1.644;2022-09-03T03:00:36;20.70;81.90
12622;DHT22;6376;48.182;-1.644;2022-09-03T03:03:02;20.60;81.80
12622;DHT22;6376;48.182;-1.644;2022-09-03T03:05:46;20.70;81.90
12622;DHT22;6376;48.182;-1.644;2022-09-03T03:08:12;20.60;81.90
12622;DHT22;6376;48.182;-1.644;2022-09-03T03:10:40;20.70;81.90
12622;DHT22;6376;48.182;-1.644;2022-09-03T03:13:08;20.60;81.90
12622;DHT22;6376;48.182;-1.644;2022-09-03T03:15:34;20.70;81.90
12622;DHT22;6376;48.182;-1.644;2022-09-03T03:17:59;20.60;81.90
12622;DHT22;6376;48.182;-1.644;2022-09-03T03:20:25;20.60;81.80
12622;DHT22;6376;48.182;-1.644;2022-09-03T03:22:50;20.60;81.90
12622;DHT22;6376;48.182;-1.644;2022-09-03T03:25:16;20.60;81.90
12622;DHT22;6376;48.182;-1.644;2022-09-03T03:27:42;20.60;81.90
12622;DHT22;6376;48.182;-1.644;2022-09-03T03:30:09;20.60;82.70
12622;DHT22;6376;48.182;-1.644;2022-09-03T03:32:38;20.60;82.00
12622;DHT22;6376;48.182;-1.644;2022-09-03T03:35:05;20.60;82.10
12622;DHT22;6376;48.182;-1.644;2022-09-03T03:37:32;20.60;82.00
12622;DHT22;6376;48.182;-1.644;2022-09-03T03:39:58;20.60;82.10
12622;DHT22;6376;48.182;-1.644;2022-09-03T03:42:24;20.60;82.10
12622;DHT22;6376;48.182;-1.644;2022-09-03T03:44:49;20.60;82.10
12622;DHT22;6376;48.182;-1.644;2022-09-03T03:47:15;20.60;82.00
12622;DHT22;6376;48.182;-1.644;2022-09-03T03:49:44;20.60;81.90
12622;DHT22;6376;48.182;-1.644;2022-09-03T03:52:09;20.60;82.00
12622;DHT22;6376;48.182;-1.644;2022-09-03T03:54:35;20.60;82.10
12622;DHT22;6376;48.182;-1.644;2022-09-03T03:57:00;20.60;82.10
12622;DHT22;6376;48.182;-1.644;2022-09-03T03:59:26;20.60;82.10
12622;DHT22;6376;48.182;-1.644;2022-09-03T04:01:55;20.60;82.20
12622;DHT22;6376;48.182;-1.644;2022-09-03T04:04:20;20.60;82.20
12622;DHT22;6376;48.182;-1.644;2022-09-03T04:06:46;20.60;82.20
12622;DHT22;6376;48.182;-1.644;2022-09-03T04:09:12;20.60;82.10
12622;DHT22;6376;48.182;-1.644;2022-09-03T04:11:37;20.60;82.20
12622;DHT22;6376;48.182;-1.644;2022-09-03T04:14:03;20.60;82.20
12622;DHT22;6376;48.182;-1.644;2022-09-03T04:16:29;20.60;82.10
12622;DHT22;6376;48.182;-1.644;2022-09-03T04:18:57;20.60;82.20
12622;DHT22;6376;48.182;-1.644;2022-09-03T04:21:25;20.60;82.10
12622;DHT22;6376;48.182;-1.644;2022-09-03T04:23:52;20.60;82.10
12622;DHT22;6376;48.182;-1.644;2022-09-03T04:26:24;20.60;82.10
12622;DHT22;6376;48.182;-1.644;2022-09-03T04:28:50;20.60;82.10
12622;DHT22;6376;48.182;-1.644;2022-09-03T04:31:17;20.60;82.20
12622;DHT22;6376;48.182;-1.644;2022-09-03T04:33:44;20.60;82.20
12622;DHT22;6376;48.182;-1.644;2022-09-03T04:38:39;20.60;82.20
12622;DHT22;6376;48.182;-1.644;2022-09-03T04:41:07;20.60;82.30
12622;DHT22;6376;48.182;-1.644;2022-09-03T04:43:33;20.60;82.20
12622;DHT22;6376;48.182;-1.644;2022-09-03T04:46:00;20.50;82.20
12622;DHT22;6376;48.182;-1.644;2022-09-03T04:48:27;20.50;82.30
12622;DHT22;6376;48.182;-1.644;2022-09-03T04:50:53;20.50;82.30
12622;DHT22;6376;48.182;-1.644;2022-09-03T04:53:20;20.50;82.30
12622;DHT22;6376;48.182;-1.644;2022-09-03T04:55:47;20.50;82.30
12622;DHT22;6376;48.182;-1.644;2022-09-03T04:58:12;20.50;82.30
12622;DHT22;6376;48.182;-1.644;2022-09-03T05:00:38;20.50;82.40
12622;DHT22;6376;48.182;-1.644;2022-09-03T05:03:04;20.50;82.50
12622;DHT22;6376;48.182;-1.644;2022-09-03T05:05:31;20.50;82.40
12622;DHT22;6376;48.182;-1.644;2022-09-03T05:07:59;20.50;82.50
12622;DHT22;6376;48.182;-1.644;2022-09-03T05:10:26;20.50;82.50
12622;DHT22;6376;48.182;-1.644;2022-09-03T05:13:03;20.50;82.50
12622;DHT22;6376;48.182;-1.644;2022-09-03T05:15:30;20.50;82.60
12622;DHT22;6376;48.182;-1.644;2022-09-03T05:18:02;20.50;82.60
12622;DHT22;6376;48.182;-1.644;2022-09-03T05:20:29;20.50;82.60
12622;DHT22;6376;48.182;-1.644;2022-09-03T05:22:55;20.50;82.60
12622;DHT22;6376;48.182;-1.644;2022-09-03T05:25:22;20.50;82.50
12622;DHT22;6376;48.182;-1.644;2022-09-03T05:27:48;20.50;82.60
12622;DHT22;6376;48.182;-1.644;2022-09-03T05:30:14;20.50;82.60
12622;DHT22;6376;48.182;-1.644;2022-09-03T05:32:41;20.50;82.60
12622;DHT22;6376;48.182;-1.644;2022-09-03T05:35:08;20.50;82.60
12622;DHT22;6376;48.182;-1.644;2022-09-03T05:37:35;20.50;82.60
12622;DHT22;6376;48.182;-1.644;2022-09-03T05:40:01;20.50;82.60
12622;DHT22;6376;48.182;-1.644;2022-09-03T05:42:26;20.50;83.30
12622;DHT22;6376;48.182;-1.644;2022-09-03T05:44:52;20.50;82.60
12622;DHT22;6376;48.182;-1.644;2022-09-03T05:47:19;20.50;82.60
12622;DHT22;6376;48.182;-1.644;2022-09-03T05:49:44;20.50;82.60
12622;DHT22;6376;48.182;-1.644;2022-09-03T05:52:10;20.50;82.60
12622;DHT22;6376;48.182;-1.644;2022-09-03T05:54:36;20.50;82.60
12622;DHT22;6376;48.182;-1.644;2022-09-03T05:57:01;20.50;82.60
12622;DHT22;6376;48.182;-1.644;2022-09-03T05:59:27;20.50;82.60
12622;DHT22;6376;48.182;-1.644;2022-09-03T06:01:53;20.40;82.60
12622;DHT22;6376;48.182;-1.644;2022-09-03T06:04:18;20.50;82.70
12622;DHT22;6376;48.182;-1.644;2022-09-03T06:06:46;20.50;82.70
12622;DHT22;6376;48.182;-1.644;2022-09-03T06:09:17;20.50;82.70
12622;DHT22;6376;48.182;-1.644;2022-09-03T06:11:43;20.50;82.70
12622;DHT22;6376;48.182;-1.644;2022-09-03T06:14:11;20.50;82.70
12622;DHT22;6376;48.182;-1.644;2022-09-03T06:16:39;20.50;82.70
12622;DHT22;6376;48.182;-1.644;2022-09-03T06:19:06;20.50;82.90
12622;DHT22;6376;48.182;-1.644;2022-09-03T06:21:34;20.50;82.80
12622;DHT22;6376;48.182;-1.644;2022-09-03T06:24:01;20.50;82.80
12622;DHT22;6376;48.182;-1.644;2022-09-03T06:26:28;20.50;82.80
12622;DHT22;6376;48.182;-1.644;2022-09-03T06:28:54;20.50;82.80
12622;DHT22;6376;48.182;-1.644;2022-09-03T06:31:21;20.50;82.80
12622;DHT22;6376;48.182;-1.644;2022-09-03T06:33:47;20.50;82.80
12622;DHT22;6376;48.182;-1.644;2022-09-03T06:36:15;20.50;82.80
12622;DHT22;6376;48.182;-1.644;2022-09-03T06:38:42;20.40;82.70
12622;DHT22;6376;48.182;-1.644;2022-09-03T06:41:17;20.40;82.70
12622;DHT22;6376;48.182;-1.644;2022-09-03T06:43:53;20.40;82.70
12622;DHT22;6376;48.182;-1.644;2022-09-03T06:46:21;20.40;82.90
12622;DHT22;6376;48.182;-1.644;2022-09-03T06:48:48;20.40;82.90
12622;DHT22;6376;48.182;-1.644;2022-09-03T06:51:17;20.50;82.90
12622;DHT22;6376;48.182;-1.644;2022-09-03T06:53:45;20.40;83.10
12622;DHT22;6376;48.182;-1.644;2022-09-03T06:56:13;20.40;82.80
12622;DHT22;6376;48.182;-1.644;2022-09-03T06:58:42;20.40;83.00
12622;DHT22;6376;48.182;-1.644;2022-09-03T07:01:11;20.40;82.80
12622;DHT22;6376;48.182;-1.644;2022-09-03T07:03:38;20.40;82.90
12622;DHT22;6376;48.182;-1.644;2022-09-03T07:06:10;20.40;82.90
12622;DHT22;6376;48.182;-1.644;2022-09-03T07:08:36;20.40;82.90
12622;DHT22;6376;48.182;-1.644;2022-09-03T07:11:06;20.40;82.90
12622;DHT22;6376;48.182;-1.644;2022-09-03T07:13:36;20.40;82.90
12622;DHT22;6376;48.182;-1.644;2022-09-03T07:16:09;20.40;82.90
12622;DHT22;6376;48.182;-1.644;2022-09-03T07:18:36;20.50;82.90
12622;DHT22;6376;48.182;-1.644;2022-09-03T07:21:04;20.50;82.90
12622;DHT22;6376;48.182;-1.644;2022-09-03T07:23:31;20.50;82.80
12622;DHT22;6376;48.182;-1.644;2022-09-03T07:26:09;20.50;82.60
12622;DHT22;6376;48.182;-1.644;2022-09-03T07:28:36;20.50;82.60
12622;DHT22;6376;48.182;-1.644;2022-09-03T07:31:05;20.50;82.50
12622;DHT22;6376;48.182;-1.644;2022-09-03T07:33:32;20.50;82.40
12622;DHT22;6376;48.182;-1.644;2022-09-03T07:36:03;20.50;82.50
12622;DHT22;6376;48.182;-1.644;2022-09-03T07:38:33;20.50;82.60
12622;DHT22;6376;48.182;-1.644;2022-09-03T07:41:07;20.50;82.50
12622;DHT22;6376;48.182;-1.644;2022-09-03T07:43:35;20.50;82.60
12622;DHT22;6376;48.182;-1.644;2022-09-03T07:46:01;20.50;82.50
12622;DHT22;6376;48.182;-1.644;2022-09-03T07:48:27;20.50;82.30
12622;DHT22;6376;48.182;-1.644;2022-09-03T07:50:58;20.50;82.50
12622;DHT22;6376;48.182;-1.644;2022-09-03T07:53:26;20.50;82.60
12622;DHT22;6376;48.182;-1.644;2022-09-03T07:55:51;20.50;82.40
12622;DHT22;6376;48.182;-1.644;2022-09-03T07:58:18;20.50;82.20
12622;DHT22;6376;48.182;-1.644;2022-09-03T08:00:47;20.50;82.20
12622;DHT22;6376;48.182;-1.644;2022-09-03T08:03:13;20.50;82.30
12622;DHT22;6376;48.182;-1.644;2022-09-03T08:05:39;20.50;82.60
12622;DHT22;6376;48.182;-1.644;2022-09-03T08:08:05;20.60;82.20
12622;DHT22;6376;48.182;-1.644;2022-09-03T08:10:35;20.70;82.10
12622;DHT22;6376;48.182;-1.644;2022-09-03T08:13:03;20.80;81.50
12622;DHT22;6376;48.182;-1.644;2022-09-03T08:15:32;20.90;81.30
12622;DHT22;6376;48.182;-1.644;2022-09-03T08:17:59;20.90;80.90
12622;DHT22;6376;48.182;-1.644;2022-09-03T08:20:26;20.90;80.60
12622;DHT22;6376;48.182;-1.644;2022-09-03T08:22:52;20.90;80.80
12622;DHT22;6376;48.182;-1.644;2022-09-03T08:25:18;20.80;80.80
12622;DHT22;6376;48.182;-1.644;2022-09-03T08:27:44;20.90;80.70
12622;DHT22;6376;48.182;-1.644;2022-09-03T08:30:10;20.90;80.80
12622;DHT22;6376;48.182;-1.644;2022-09-03T08:32:39;20.90;81.00
12622;DHT22;6376;48.182;-1.644;2022-09-03T08:35:05;21.10;80.40
12622;DHT22;6376;48.182;-1.644;2022-09-03T08:37:31;21.30;79.40
12622;DHT22;6376;48.182;-1.644;2022-09-03T08:39:57;21.30;79.50
12622;DHT22;6376;48.182;-1.644;2022-09-03T08:45:06;21.20;80.30
12622;DHT22;6376;48.182;-1.644;2022-09-03T08:47:58;21.20;80.50
12622;DHT22;6376;48.182;-1.644;2022-09-03T08:50:33;21.30;79.50
12622;DHT22;6376;48.182;-1.644;2022-09-03T08:58:13;21.90;76.80
12622;DHT22;6376;48.182;-1.644;2022-09-03T09:09:04;21.40;79.30
12622;DHT22;6376;48.182;-1.644;2022-09-03T09:20:04;22.00;77.50
12622;DHT22;6376;48.182;-1.644;2022-09-03T09:22:40;21.90;77.40
12622;DHT22;6376;48.182;-1.644;2022-09-03T09:25:11;21.80;77.50
12622;DHT22;6376;48.182;-1.644;2022-09-03T09:27:59;21.80;78.20
12622;DHT22;6376;48.182;-1.644;2022-09-03T09:30:27;21.80;77.70
12622;DHT22;6376;48.182;-1.644;2022-09-03T09:32:53;21.80;77.50
12622;DHT22;6376;48.182;-1.644;2022-09-03T09:35:21;21.70;78.20
12622;DHT22;6376;48.182;-1.644;2022-09-03T09:37:56;21.80;78.00
12622;DHT22;6376;48.182;-1.644;2022-09-03T09:40:34;21.80;77.40
12622;DHT22;6376;48.182;-1.644;2022-09-03T09:43:15;21.80;77.60
12622;DHT22;6376;48.182;-1.644;2022-09-03T09:45:44;21.80;77.70
12622;DHT22;6376;48.182;-1.644;2022-09-03T09:48:27;21.80;77.40
12622;DHT22;6376;48.182;-1.644;2022-09-03T09:51:12;21.80;77.30
12622;DHT22;6376;48.182;-1.644;2022-09-03T09:53:39;21.80;77.60
12622;DHT22;6376;48.182;-1.644;2022-09-03T09:56:05;21.80;77.60
12622;DHT22;6376;48.182;-1.644;2022-09-03T09:58:32;21.80;77.50
12622;DHT22;6376;48.182;-1.644;2022-09-03T10:01:16;21.70;77.70
12622;DHT22;6376;48.182;-1.644;2022-09-03T10:03:57;21.80;77.60
12622;DHT22;6376;48.182;-1.644;2022-09-03T10:06:30;21.70;76.90
12622;DHT22;6376;48.182;-1.644;2022-09-03T10:09:19;21.70;77.00
12622;DHT22;6376;48.182;-1.644;2022-09-03T10:11:52;21.80;77.50
12622;DHT22;6376;48.182;-1.644;2022-09-03T10:14:35;21.80;78.00
12622;DHT22;6376;48.182;-1.644;2022-09-03T10:17:19;21.80;77.20
12622;DHT22;6376;48.182;-1.644;2022-09-03T10:19:55;21.80;77.30
12622;DHT22;6376;48.182;-1.644;2022-09-03T10:22:46;21.70;77.50
12622;DHT22;6376;48.182;-1.644;2022-09-03T10:25:15;21.70;77.40
12622;DHT22;6376;48.182;-1.644;2022-09-03T10:27:42;21.70;77.90
12622;DHT22;6376;48.182;-1.644;2022-09-03T10:30:11;21.70;77.50
12622;DHT22;6376;48.182;-1.644;2022-09-03T10:35:36;21.70;77.90
12622;DHT22;6376;48.182;-1.644;2022-09-03T10:46:52;21.70;77.30
12622;DHT22;6376;48.182;-1.644;2022-09-03T10:55:41;21.70;78.00
12622;DHT22;6376;48.182;-1.644;2022-09-03T11:01:09;21.70;77.30
12622;DHT22;6376;48.182;-1.644;2022-09-03T11:06:31;21.80;77.00
12622;DHT22;6376;48.182;-1.644;2022-09-03T11:11:50;22.10;76.60
12622;DHT22;6376;48.182;-1.644;2022-09-03T11:14:36;22.40;75.80
12622;DHT22;6376;48.182;-1.644;2022-09-03T11:17:27;22.60;75.20
12622;DHT22;6376;48.182;-1.644;2022-09-03T11:20:18;22.90;74.80
12622;DHT22;6376;48.182;-1.644;2022-09-03T11:22:46;23.00;74.40
12622;DHT22;6376;48.182;-1.644;2022-09-03T11:25:14;22.80;74.80
12622;DHT22;6376;48.182;-1.644;2022-09-03T11:30:11;22.50;73.80
12622;DHT22;6376;48.182;-1.644;2022-09-03T11:33:04;22.40;74.80
12622;DHT22;6376;48.182;-1.644;2022-09-03T11:38:03;22.30;74.90
12622;DHT22;6376;48.182;-1.644;2022-09-03T11:40:37;22.70;73.80
12622;DHT22;6376;48.182;-1.644;2022-09-03T11:48:45;23.20;71.70
12622;DHT22;6376;48.182;-1.644;2022-09-03T11:51:33;23.10;72.10
12622;DHT22;6376;48.182;-1.644;2022-09-03T11:54:22;23.20;72.30
12622;DHT22;6376;48.182;-1.644;2022-09-03T11:56:49;23.20;73.00
12622;DHT22;6376;48.182;-1.644;2022-09-03T11:59:23;23.20;72.60
12622;DHT22;6376;48.182;-1.644;2022-09-03T12:02:15;23.20;71.40
12622;DHT22;6376;48.182;-1.644;2022-09-03T12:08:00;23.00;70.80
12622;DHT22;6376;48.182;-1.644;2022-09-03T12:10:42;22.90;72.00
12622;DHT22;6376;48.182;-1.644;2022-09-03T12:16:04;22.80;72.60
12622;DHT22;6376;48.182;-1.644;2022-09-03T12:18:34;22.70;73.60
12622;DHT22;6376;48.182;-1.644;2022-09-03T12:21:02;22.80;71.90
12622;DHT22;6376;48.182;-1.644;2022-09-03T12:23:34;22.80;73.20
12622;DHT22;6376;48.182;-1.644;2022-09-03T12:26:06;22.80;72.70
12622;DHT22;6376;48.182;-1.644;2022-09-03T12:28:36;22.80;70.70
12622;DHT22;6376;48.182;-1.644;2022-09-03T12:31:18;22.90;69.70
12622;DHT22;6376;48.182;-1.644;2022-09-03T12:33:54;22.90;71.20
12622;DHT22;6376;48.182;-1.644;2022-09-03T12:36:23;22.90;72.90
12622;DHT22;6376;48.182;-1.644;2022-09-03T12:38:50;22.90;71.30
12622;DHT22;6376;48.182;-1.644;2022-09-03T12:41:29;23.00;71.20
12622;DHT22;6376;48.182;-1.644;2022-09-03T12:43:58;23.00;71.10
12622;DHT22;6376;48.182;-1.644;2022-09-03T12:46:30;22.90;70.10
12622;DHT22;6376;48.182;-1.644;2022-09-03T12:49:02;23.00;67.50
12622;DHT22;6376;48.182;-1.644;2022-09-03T12:51:38;23.00;69.10
12622;DHT22;6376;48.182;-1.644;2022-09-03T12:54:10;22.90;69.50
12622;DHT22;6376;48.182;-1.644;2022-09-03T12:56:55;22.90;70.20
12622;DHT22;6376;48.182;-1.644;2022-09-03T12:59:26;23.00;69.70
12622;DHT22;6376;48.182;-1.644;2022-09-03T13:01:55;23.20;69.70
12622;DHT22;6376;48.182;-1.644;2022-09-03T13:04:30;23.10;67.30
12622;DHT22;6376;48.182;-1.644;2022-09-03T13:07:43;22.90;68.60
12622;DHT22;6376;48.182;-1.644;2022-09-03T13:09:46;22.90;70.00
12622;DHT22;6376;48.182;-1.644;2022-09-03T13:12:33;23.00;70.80
12622;DHT22;6376;48.182;-1.644;2022-09-03T13:15:08;23.00;65.40
12622;DHT22;6376;48.182;-1.644;2022-09-03T13:20:32;22.90;67.20
12622;DHT22;6376;48.182;-1.644;2022-09-03T13:28:18;22.90;66.60
12622;DHT22;6376;48.182;-1.644;2022-09-03T13:33:31;22.80;70.80
12622;DHT22;6376;48.182;-1.644;2022-09-03T13:35:59;22.90;71.50
12622;DHT22;6376;48.182;-1.644;2022-09-03T13:38:45;22.80;71.10
12622;DHT22;6376;48.182;-1.644;2022-09-03T13:44:00;22.80;68.00
12622;DHT22;6376;48.182;-1.644;2022-09-03T14:00:33;22.70;67.10
12622;DHT22;6376;48.182;-1.644;2022-09-03T14:03:24;22.60;69.70
12622;DHT22;6376;48.182;-1.644;2022-09-03T14:11:31;22.70;69.30
12622;DHT22;6376;48.182;-1.644;2022-09-03T14:16:56;22.70;69.40
12622;DHT22;6376;48.182;-1.644;2022-09-03T14:22:15;22.70;68.00
12622;DHT22;6376;48.182;-1.644;2022-09-03T14:25:08;22.70;69.00
12622;DHT22;6376;48.182;-1.644;2022-09-03T14:27:35;22.80;68.00
12622;DHT22;6376;48.182;-1.644;2022-09-03T14:33:20;23.00;67.40
12622;DHT22;6376;48.182;-1.644;2022-09-03T14:47:50;23.10;64.20
12622;DHT22;6376;48.182;-1.644;2022-09-03T14:54:00;23.20;65.50
12622;DHT22;6376;48.182;-1.644;2022-09-03T15:02:51;23.30;63.00
12622;DHT22;6376;48.182;-1.644;2022-09-03T15:08:48;23.10;65.50
12622;DHT22;6376;48.182;-1.644;2022-09-03T15:11:23;23.20;65.10
12622;DHT22;6376;48.182;-1.644;2022-09-03T15:13:54;23.20;65.70
12622;DHT22;6376;48.182;-1.644;2022-09-03T15:24:50;23.00;63.20
12622;DHT22;6376;48.182;-1.644;2022-09-03T15:30:13;22.90;64.70
12622;DHT22;6376;48.182;-1.644;2022-09-03T15:37:59;22.70;65.70
12622;DHT22;6376;48.182;-1.644;2022-09-03T15:40:33;22.70;65.80
12622;DHT22;6376;48.182;-1.644;2022-09-03T15:43:06;22.70;66.10
12622;DHT22;6376;48.182;-1.644;2022-09-03T15:45:50;22.60;66.20
12622;DHT22;6376;48.182;-1.644;2022-09-03T15:48:35;22.60;66.40
12622;DHT22;6376;48.182;-1.644;2022-09-03T15:51:24;22.60;66.60
12622;DHT22;6376;48.182;-1.644;2022-09-03T15:54:11;22.60;66.70
12622;DHT22;6376;48.182;-1.644;2022-09-03T15:57:05;22.50;66.80
12622;DHT22;6376;48.182;-1.644;2022-09-03T15:59:54;22.50;67.10
12622;DHT22;6376;48.182;-1.644;2022-09-03T16:02:30;22.50;66.90
12622;DHT22;6376;48.182;-1.644;2022-09-03T16:05:35;22.50;67.10
12622;DHT22;6376;48.182;-1.644;2022-09-03T16:16:56;22.40;67.70
12622;DHT22;6376;48.182;-1.644;2022-09-03T16:19:44;22.40;67.80
12622;DHT22;6376;48.182;-1.644;2022-09-03T16:22:29;22.40;68.00
12622;DHT22;6376;48.182;-1.644;2022-09-03T16:25:02;22.40;68.00
12622;DHT22;6376;48.182;-1.644;2022-09-03T16:27:41;22.40;68.10
12622;DHT22;6376;48.182;-1.644;2022-09-03T16:30:13;22.40;68.20
12622;DHT22;6376;48.182;-1.644;2022-09-03T16:35:22;22.40;68.30
12622;DHT22;6376;48.182;-1.644;2022-09-03T16:41:04;22.40;68.40
12622;DHT22;6376;48.182;-1.644;2022-09-03T16:46:51;22.40;68.40
12622;DHT22;6376;48.182;-1.644;2022-09-03T16:52:22;22.40;68.60
12622;DHT22;6376;48.182;-1.644;2022-09-03T16:55:02;22.40;68.60
12622;DHT22;6376;48.182;-1.644;2022-09-03T17:00:27;22.30;68.70
12622;DHT22;6376;48.182;-1.644;2022-09-03T17:08:24;22.30;68.90
12622;DHT22;6376;48.182;-1.644;2022-09-03T17:21:55;22.30;69.00
12622;DHT22;6376;48.182;-1.644;2022-09-03T17:32:46;22.20;69.10
12622;DHT22;6376;48.182;-1.644;2022-09-03T17:41:20;22.20;69.30
12622;DHT22;6376;48.182;-1.644;2022-09-03T17:49:47;22.20;69.40
12622;DHT22;6376;48.182;-1.644;2022-09-03T17:58:13;22.10;69.60
12622;DHT22;6376;48.182;-1.644;2022-09-03T18:00:59;22.10;69.60
12622;DHT22;6376;48.182;-1.644;2022-09-03T18:03:52;22.00;69.80
12622;DHT22;6376;48.182;-1.644;2022-09-03T18:09:29;22.00;69.90
12622;DHT22;6376;48.182;-1.644;2022-09-03T18:14:55;21.90;70.10
12622;DHT22;6376;48.182;-1.644;2022-09-03T18:17:45;21.90;70.20
12622;DHT22;6376;48.182;-1.644;2022-09-03T18:20:15;21.90;71.10
12622;DHT22;6376;48.182;-1.644;2022-09-03T18:26:06;21.90;70.50
12622;DHT22;6376;48.182;-1.644;2022-09-03T18:29:02;21.90;70.70
12622;DHT22;6376;48.182;-1.644;2022-09-03T18:31:47;21.80;70.70
12622;DHT22;6376;48.182;-1.644;2022-09-03T18:34:34;21.80;70.80
12622;DHT22;6376;48.182;-1.644;2022-09-03T18:37:25;21.80;71.60
12622;DHT22;6376;48.182;-1.644;2022-09-03T18:40:15;21.90;70.90
12622;DHT22;6376;48.182;-1.644;2022-09-03T18:46:48;21.90;70.90
12622;DHT22;6376;48.182;-1.644;2022-09-03T18:52:40;21.90;71.00
12622;DHT22;6376;48.182;-1.644;2022-09-03T18:58:38;21.90;71.10
12622;DHT22;6376;48.182;-1.644;2022-09-03T19:01:37;21.80;71.10
12622;DHT22;6376;48.182;-1.644;2022-09-03T19:07:22;21.90;71.30
12622;DHT22;6376;48.182;-1.644;2022-09-03T19:10:16;21.80;71.20
12622;DHT22;6376;48.182;-1.644;2022-09-03T19:13:24;21.80;71.30
12622;DHT22;6376;48.182;-1.644;2022-09-03T19:22:38;21.80;71.60
12622;DHT22;6376;48.182;-1.644;2022-09-03T19:25:24;21.80;71.60
12622;DHT22;6376;48.182;-1.644;2022-09-03T19:28:18;21.80;71.70
12622;DHT22;6376;48.182;-1.644;2022-09-03T19:37:26;21.70;72.50
12622;DHT22;6376;48.182;-1.644;2022-09-03T19:46:48;21.70;72.10
12622;DHT22;6376;48.182;-1.644;2022-09-03T19:55:33;21.60;72.20
12622;DHT22;6376;48.182;-1.644;2022-09-03T19:58:21;21.60;72.30
12622;DHT22;6376;48.182;-1.644;2022-09-03T20:01:07;21.60;72.20
12622;DHT22;6376;48.182;-1.644;2022-09-03T20:03:54;21.60;72.20
12622;DHT22;6376;48.182;-1.644;2022-09-03T20:06:39;21.60;72.30
12622;DHT22;6376;48.182;-1.644;2022-09-03T20:09:28;21.60;72.40
12622;DHT22;6376;48.182;-1.644;2022-09-03T20:12:16;21.60;72.40
12622;DHT22;6376;48.182;-1.644;2022-09-03T20:14:42;21.50;72.40
12622;DHT22;6376;48.182;-1.644;2022-09-03T20:20:16;21.60;72.50
12622;DHT22;6376;48.182;-1.644;2022-09-03T20:22:59;21.60;72.60
12622;DHT22;6376;48.182;-1.644;2022-09-03T20:25:32;21.50;72.50
12622;DHT22;6376;48.182;-1.644;2022-09-03T20:41:44;21.40;72.90
12622;DHT22;6376;48.182;-1.644;2022-09-03T20:52:18;21.40;73.10
12622;DHT22;6376;48.182;-1.644;2022-09-03T20:57:39;21.40;73.20
12622;DHT22;6376;48.182;-1.644;2022-09-03T21:03:11;21.40;73.30
12622;DHT22;6376;48.182;-1.644;2022-09-03T21:11:38;21.30;73.30
12622;DHT22;6376;48.182;-1.644;2022-09-03T21:14:16;21.30;73.40
12622;DHT22;6376;48.182;-1.644;2022-09-03T21:17:23;21.30;73.50
12622;DHT22;6376;48.182;-1.644;2022-09-03T21:20:15;21.30;73.60
12622;DHT22;6376;48.182;-1.644;2022-09-03T21:25:37;21.30;73.60
12622;DHT22;6376;48.182;-1.644;2022-09-03T21:30:55;21.30;73.80
12622;DHT22;6376;48.182;-1.644;2022-09-03T21:33:32;21.30;73.80
12622;DHT22;6376;48.182;-1.644;2022-09-03T21:38:26;21.30;73.90
12622;DHT22;6376;48.182;-1.644;2022-09-03T21:44:02;21.20;73.80
12622;DHT22;6376;48.182;-1.644;2022-09-03T21:46:38;21.20;73.90
12622;DHT22;6376;48.182;-1.644;2022-09-03T21:49:09;21.20;73.90
12622;DHT22;6376;48.182;-1.644;2022-09-03T21:52:16;21.20;74.00
12622;DHT22;6376;48.182;-1.644;2022-09-03T21:54:34;21.20;73.90
12622;DHT22;6376;48.182;-1.644;2022-09-03T22:00:16;21.20;74.00
12622;DHT22;6376;48.182;-1.644;2022-09-03T22:02:48;21.20;74.10
12622;DHT22;6376;48.182;-1.644;2022-09-03T22:05:15;21.10;74.20
12622;DHT22;6376;48.182;-1.644;2022-09-03T22:13:39;21.10;74.30
12622;DHT22;6376;48.182;-1.644;2022-09-03T22:16:28;21.10;74.30
12622;DHT22;6376;48.182;-1.644;2022-09-03T22:18:56;21.10;74.30
12622;DHT22;6376;48.182;-1.644;2022-09-03T22:27:16;21.10;74.40
12622;DHT22;6376;48.182;-1.644;2022-09-03T22:29:35;21.00;74.60
12622;DHT22;6376;48.182;-1.644;2022-09-03T22:40:31;21.00;74.70
12622;DHT22;6376;48.182;-1.644;2022-09-03T22:46:06;21.00;75.40
12622;DHT22;6376;48.182;-1.644;2022-09-03T22:48:55;21.00;74.70